createdAt,value
2023-04-19T00:01:09.766Z,9.40
2023-04-19T00:16:09.628Z,8.40
2023-04-19T00:31:09.534Z,8.10
2023-04-19T00:46:09.342Z,9.20
2023-04-19T01:02:36.795Z,6.50
2023-04-19T01:16:08.995Z,6.20
2023-04-19T01:31:08.869Z,7.50
2023-04-19T01:46:08.753Z,7.90
2023-04-19T02:01:08.647Z,6.50
2023-04-19T02:16:08.380Z,6.80
2023-04-19T02:31:08.193Z,8.90
2023-04-19T02:46:08.063Z,7.20
2023-04-19T03:01:07.980Z,6.40
2023-04-19T03:16:07.772Z,6.00
2023-04-19T03:31:07.686Z,8.40
2023-04-19T03:46:07.412Z,8.70
2023-04-19T04:01:07.213Z,6.70
2023-04-19T04:16:07.085Z,7.00
2023-04-19T04:31:06.961Z,8.00
2023-04-19T04:46:06.847Z,11.20
2023-04-19T05:01:06.710Z,9.60
2023-04-19T05:16:06.487Z,7.70
2023-04-19T05:31:06.316Z,7.00
2023-04-19T05:46:06.198Z,7.00
2023-04-19T06:01:06.082Z,6.40
2023-04-19T06:16:05.912Z,4.90
2023-04-19T06:31:05.699Z,6.30
2023-04-19T06:46:05.592Z,6.70
2023-04-19T07:01:05.398Z,6.50
2023-04-19T07:16:05.498Z,5.10
2023-04-19T07:31:05.033Z,6.60
2023-04-19T07:46:05.040Z,6.10
2023-04-19T08:01:04.716Z,5.80
2023-04-19T08:16:40.263Z,3.80
2023-04-19T08:31:04.421Z,7.10
2023-04-19T08:46:04.390Z,5.80
2023-04-19T09:01:04.114Z,7.70
2023-04-19T09:16:04.000Z,10.10
2023-04-19T09:31:23.620Z,6.60
2023-04-19T09:46:03.704Z,6.00
2023-04-19T10:01:14.288Z,7.60
2023-04-19T10:16:15.537Z,7.60
2023-04-19T10:31:03.152Z,7.40
2023-04-19T10:46:03.053Z,7.10
2023-04-19T11:01:02.889Z,7.40
2023-04-19T11:16:04.297Z,6.00
2023-04-19T11:31:03.664Z,7.50
2023-04-19T11:46:02.339Z,6.80
2023-04-19T12:01:02.240Z,7.30
2023-04-19T12:16:02.042Z,7.60
2023-04-19T12:31:01.865Z,5.90
2023-04-19T12:46:01.790Z,7.90
2023-04-19T13:01:01.609Z,5.20
2023-04-19T13:16:01.401Z,8.00
2023-04-19T13:31:01.206Z,9.00
2023-04-19T13:46:01.007Z,6.40
2023-04-19T14:01:00.904Z,7.30
2023-04-19T14:16:00.804Z,5.30
2023-04-19T14:31:00.562Z,7.10
2023-04-19T14:46:00.540Z,8.40
2023-04-19T15:01:00.329Z,7.80
2023-04-19T15:16:03.123Z,9.80
2023-04-19T15:31:01.890Z,11.50
2023-04-19T15:46:00.918Z,13.00
2023-04-19T16:00:59.599Z,12.10
2023-04-19T16:16:01.479Z,12.40
2023-04-19T16:30:59.327Z,12.70
2023-04-19T16:45:59.169Z,15.40
2023-04-19T17:00:59.125Z,17.90
2023-04-19T17:15:59.006Z,16.40
2023-04-19T17:30:58.766Z,14.40
2023-04-19T17:45:58.690Z,15.00
2023-04-19T18:00:58.480Z,14.10
2023-04-19T18:15:59.140Z,10.30
2023-04-19T18:30:58.096Z,10.80
2023-04-19T18:45:57.995Z,11.90
2023-04-19T19:00:57.760Z,13.00
2023-04-19T19:15:57.662Z,14.40
2023-04-19T19:30:57.485Z,14.60
2023-04-19T19:45:57.451Z,16.00
2023-04-19T20:00:57.163Z,18.60
2023-04-19T20:15:57.096Z,17.20
2023-04-19T20:30:56.859Z,17.50
2023-04-19T20:45:56.808Z,16.90
2023-04-19T21:00:56.563Z,14.70
2023-04-19T21:15:56.424Z,13.70
2023-04-19T21:30:56.279Z,13.70
2023-04-19T21:45:56.135Z,14.70
2023-04-19T22:00:56.015Z,16.50
2023-04-19T22:15:55.799Z,16.30
2023-04-19T22:30:55.636Z,15.50
2023-04-19T22:45:55.506Z,14.90
2023-04-19T23:00:55.382Z,14.60
2023-04-19T23:15:55.181Z,16.20
2023-04-19T23:30:55.030Z,14.00
2023-04-19T23:45:54.859Z,14.40
